createdAt,value
2018-10-19T00:00:08.916Z,57.14
2018-10-19T00:00:40.514Z,57.18
2018-10-19T00:01:12.094Z,57.14
2018-10-19T00:01:43.694Z,57.29
2018-10-19T00:02:15.298Z,57.26
2018-10-19T00:02:46.889Z,57.31
2018-10-19T00:03:18.514Z,57.45
2018-10-19T00:03:50.104Z,57.51
2018-10-19T00:04:21.724Z,57.67
2018-10-19T00:04:53.332Z,57.61
2018-10-19T00:05:24.925Z,57.76
2018-10-19T00:05:56.528Z,57.68
2018-10-19T00:06:28.112Z,57.71
2018-10-19T00:06:59.700Z,57.73
2018-10-19T00:07:31.304Z,57.99
2018-10-19T00:08:02.914Z,58.02
2018-10-19T00:08:34.518Z,58.07
2018-10-19T00:09:06.156Z,57.90
2018-10-19T00:09:37.748Z,58.16
2018-10-19T00:10:09.323Z,58.34
2018-10-19T00:10:40.926Z,58.08
2018-10-19T00:11:12.517Z,58.12
2018-10-19T00:11:44.129Z,58.58
2018-10-19T00:12:15.730Z,58.21
2018-10-19T00:12:47.405Z,58.44
2018-10-19T00:13:18.956Z,58.44
2018-10-19T00:13:50.544Z,58.83
2018-10-19T00:14:22.155Z,58.86
2018-10-19T00:14:53.776Z,58.97
2018-10-19T00:15:25.367Z,58.87
2018-10-19T00:15:56.965Z,58.80
2018-10-19T00:16:28.556Z,59.08
2018-10-19T00:17:00.152Z,58.88
2018-10-19T00:17:31.776Z,59.12
2018-10-19T00:18:03.364Z,59.17
2018-10-19T00:18:34.965Z,58.76
2018-10-19T00:19:06.570Z,58.86
2018-10-19T00:19:38.179Z,59.19
2018-10-19T00:20:09.768Z,59.28
2018-10-19T00:20:41.347Z,59.19
2018-10-19T00:21:13.005Z,59.03
2018-10-19T00:21:44.585Z,59.33
2018-10-19T00:22:16.176Z,59.29
2018-10-19T00:22:47.773Z,58.92
2018-10-19T00:23:19.361Z,58.86
2018-10-19T00:23:50.957Z,59.38
2018-10-19T00:24:22.582Z,59.46
2018-10-19T00:24:54.200Z,59.54
2018-10-19T00:25:25.788Z,59.08
2018-10-19T00:25:57.384Z,59.66
2018-10-19T00:26:28.980Z,59.50
2018-10-19T00:27:00.613Z,59.55
2018-10-19T00:27:32.177Z,59.56
2018-10-19T00:28:03.980Z,59.37
2018-10-19T00:28:35.560Z,59.56
2018-10-19T00:29:07.162Z,59.38
2018-10-19T00:29:38.789Z,59.80
2018-10-19T00:30:10.400Z,59.56
2018-10-19T00:30:41.998Z,59.74
2018-10-19T00:31:13.607Z,59.24
2018-10-19T00:31:45.197Z,59.40
2018-10-19T00:32:16.788Z,59.72
2018-10-19T00:32:48.391Z,59.82
2018-10-19T00:33:19.984Z,59.70
2018-10-19T00:33:51.573Z,59.84
2018-10-19T00:34:23.155Z,59.99
2018-10-19T00:34:54.775Z,59.99
2018-10-19T00:35:26.402Z,59.69
2018-10-19T00:35:58.006Z,59.89
2018-10-19T00:36:29.600Z,59.96
2018-10-19T00:37:01.203Z,60.02
2018-10-19T00:37:32.806Z,60.03
2018-10-19T00:38:04.419Z,59.83
2018-10-19T00:38:36.021Z,60.14
2018-10-19T00:39:07.688Z,59.88
2018-10-19T00:39:39.285Z,60.06
2018-10-19T00:40:10.882Z,59.95
2018-10-19T00:40:42.486Z,60.06
2018-10-19T00:41:14.156Z,60.04
2018-10-19T00:41:45.683Z,59.77
2018-10-19T00:42:17.296Z,60.27
2018-10-19T00:42:48.898Z,60.08
2018-10-19T00:43:20.503Z,60.23
2018-10-19T00:43:52.087Z,60.27
2018-10-19T00:44:23.690Z,60.38
2018-10-19T00:44:55.335Z,60.13
2018-10-19T00:45:26.942Z,60.19
2018-10-19T00:45:58.536Z,60.18
2018-10-19T00:46:30.136Z,60.40
2018-10-19T00:47:01.824Z,60.51
2018-10-19T00:47:33.369Z,60.60
2018-10-19T00:48:04.960Z,60.26
2018-10-19T00:48:36.551Z,60.56
2018-10-19T00:49:08.152Z,60.61
2018-10-19T00:49:39.773Z,60.71
2018-10-19T00:50:11.473Z,60.70
2018-10-19T00:50:43.050Z,60.28
2018-10-19T00:51:14.656Z,60.59
2018-10-19T00:51:46.274Z,60.42
2018-10-19T00:52:17.882Z,60.60
2018-10-19T00:52:49.462Z,60.38
2018-10-19T00:53:21.051Z,60.48
2018-10-19T00:53:52.655Z,60.30
2018-10-19T00:54:24.244Z,60.51
2018-10-19T00:54:55.864Z,60.60
2018-10-19T00:55:27.465Z,60.50
2018-10-19T00:55:59.054Z,60.46
2018-10-19T00:56:30.653Z,60.60
2018-10-19T00:57:02.287Z,60.25
2018-10-19T00:57:33.884Z,60.65
2018-10-19T00:58:05.476Z,60.42
2018-10-19T00:58:37.072Z,60.81
2018-10-19T00:59:08.704Z,60.58
2018-10-19T00:59:40.284Z,60.82
2018-10-19T01:00:11.900Z,60.82
2018-10-19T01:00:43.507Z,60.84
2018-10-19T01:01:15.105Z,60.85
2018-10-19T01:01:46.710Z,60.84
2018-10-19T01:02:18.308Z,60.56
2018-10-19T01:02:49.900Z,60.91
2018-10-19T01:03:21.489Z,60.98
2018-10-19T01:03:53.075Z,60.94
2018-10-19T01:04:24.660Z,60.86
2018-10-19T01:04:56.346Z,60.90
2018-10-19T01:05:27.906Z,61.09
2018-10-19T01:05:59.520Z,60.83
2018-10-19T01:06:31.117Z,60.99
2018-10-19T01:07:02.714Z,60.65
2018-10-19T01:07:34.317Z,61.13
2018-10-19T01:08:05.896Z,60.80
2018-10-19T01:08:37.489Z,60.92
2018-10-19T01:09:09.116Z,61.05
2018-10-19T01:09:40.707Z,61.21
2018-10-19T01:10:12.333Z,61.16
2018-10-19T01:10:43.947Z,60.97
2018-10-19T01:11:15.602Z,61.20
2018-10-19T01:11:47.170Z,61.54
2018-10-19T01:12:50.041Z,61.51
2018-10-19T01:13:21.647Z,61.65
2018-10-19T01:13:53.240Z,61.63
2018-10-19T01:14:24.833Z,61.56
2018-10-19T01:14:56.427Z,61.69
2018-10-19T01:15:28.076Z,61.48
2018-10-19T01:15:59.666Z,61.75
2018-10-19T01:16:31.323Z,61.91
2018-10-19T01:17:02.971Z,61.44
2018-10-19T01:17:34.524Z,61.88
2018-10-19T01:18:06.105Z,61.01
2018-10-19T01:18:37.705Z,61.53
2018-10-19T01:19:09.307Z,61.86
2018-10-19T01:19:40.923Z,61.54
2018-10-19T01:20:12.555Z,61.72
2018-10-19T01:20:44.145Z,61.74
2018-10-19T01:21:15.862Z,61.54
2018-10-19T01:21:47.372Z,61.72
2018-10-19T01:22:18.956Z,61.70
2018-10-19T01:22:50.535Z,61.91
2018-10-19T01:23:22.128Z,61.92
2018-10-19T01:23:53.704Z,61.57
2018-10-19T01:24:25.315Z,62.04
2018-10-19T01:24:56.922Z,61.90
2018-10-19T01:25:28.545Z,61.56
2018-10-19T01:26:00.146Z,62.05
2018-10-19T01:26:31.740Z,61.89
2018-10-19T01:27:03.402Z,61.93
2018-10-19T01:27:34.969Z,61.83
2018-10-19T01:28:06.570Z,61.85
2018-10-19T01:28:38.164Z,61.68
2018-10-19T01:29:09.810Z,61.80
2018-10-19T01:29:41.375Z,61.76
2018-10-19T01:30:13.028Z,61.77
2018-10-19T01:30:44.638Z,62.13
2018-10-19T01:31:16.228Z,62.15
2018-10-19T01:31:47.824Z,61.92
2018-10-19T01:32:19.417Z,61.90
2018-10-19T01:32:51.023Z,62.05
2018-10-19T01:33:22.602Z,61.97
2018-10-19T01:33:54.179Z,62.02
2018-10-19T01:34:25.765Z,62.11
2018-10-19T01:34:57.381Z,61.56
2018-10-19T01:35:28.964Z,62.12
2018-10-19T01:36:00.557Z,61.98
2018-10-19T01:36:32.158Z,61.89
2018-10-19T01:37:03.752Z,61.99
2018-10-19T01:37:35.360Z,61.69
2018-10-19T01:38:06.953Z,61.77
2018-10-19T01:38:38.545Z,62.00
2018-10-19T01:39:10.176Z,62.28
2018-10-19T01:39:41.736Z,62.39
2018-10-19T01:40:13.321Z,62.20
2018-10-19T01:40:44.927Z,61.82
2018-10-19T01:41:16.610Z,62.21
2018-10-19T01:41:48.161Z,62.34
2018-10-19T01:42:19.752Z,62.33
2018-10-19T01:42:51.355Z,62.39
2018-10-19T01:43:22.953Z,62.17
2018-10-19T01:43:54.534Z,61.93
2018-10-19T01:44:26.130Z,62.07
2018-10-19T01:44:57.772Z,62.29
2018-10-19T01:45:29.392Z,62.15
2018-10-19T01:46:00.981Z,62.33
2018-10-19T01:46:32.573Z,62.26
2018-10-19T01:47:04.241Z,62.39
2018-10-19T01:47:35.802Z,62.31
2018-10-19T01:48:07.406Z,62.42
2018-10-19T01:48:38.996Z,62.12
2018-10-19T01:49:10.605Z,62.36
2018-10-19T01:49:42.197Z,62.35
2018-10-19T01:50:13.797Z,62.43
2018-10-19T01:50:45.431Z,62.32
2018-10-19T01:51:17.052Z,62.39
2018-10-19T01:51:48.671Z,62.45
2018-10-19T01:52:20.261Z,62.32
2018-10-19T01:52:51.872Z,62.36
2018-10-19T01:53:23.487Z,62.37
2018-10-19T01:53:55.076Z,62.40
2018-10-19T01:54:26.673Z,62.42
2018-10-19T01:54:58.284Z,62.35
2018-10-19T01:55:29.942Z,62.00
2018-10-19T01:56:01.523Z,62.34
2018-10-19T01:56:33.125Z,62.38
2018-10-19T01:57:04.813Z,62.38
2018-10-19T01:57:36.375Z,62.42
2018-10-19T01:58:07.964Z,62.36
2018-10-19T01:58:39.566Z,62.36
2018-10-19T01:59:11.272Z,62.36
2018-10-19T01:59:42.783Z,62.42
2018-10-19T02:00:14.373Z,62.38
2018-10-19T02:00:46.010Z,62.36
2018-10-19T02:01:17.588Z,62.38
2018-10-19T02:01:49.176Z,62.40
2018-10-19T02:02:20.782Z,62.44
2018-10-19T02:02:52.390Z,62.47
2018-10-19T02:03:23.999Z,62.59
2018-10-19T02:03:55.611Z,62.63
2018-10-19T02:04:27.214Z,62.64
2018-10-19T02:04:58.842Z,62.63
2018-10-19T02:05:30.441Z,62.69
2018-10-19T02:06:02.065Z,62.66
2018-10-19T02:06:33.696Z,62.78
2018-10-19T02:07:05.298Z,62.79
2018-10-19T02:07:36.902Z,62.82
2018-10-19T02:08:08.506Z,62.83
2018-10-19T02:08:40.101Z,62.87
2018-10-19T02:09:11.719Z,62.89
2018-10-19T02:09:43.328Z,62.92
2018-10-19T02:10:14.934Z,63.00
2018-10-19T02:10:46.552Z,63.08
2018-10-19T02:11:18.141Z,63.09
2018-10-19T02:11:49.751Z,63.11
2018-10-19T02:12:21.344Z,63.12
2018-10-19T02:12:52.932Z,63.17
2018-10-19T02:13:24.529Z,63.26
2018-10-19T02:13:56.135Z,63.28
2018-10-19T02:14:27.746Z,63.30
2018-10-19T02:14:59.389Z,63.35
2018-10-19T02:15:30.988Z,63.46
2018-10-19T02:16:02.619Z,63.42
2018-10-19T02:16:34.209Z,63.50
2018-10-19T02:17:05.816Z,63.58
2018-10-19T02:17:37.417Z,63.58
2018-10-19T02:18:09.023Z,63.63
2018-10-19T02:18:40.624Z,63.71
2018-10-19T02:19:12.199Z,63.69
2018-10-19T02:19:43.782Z,63.86
2018-10-19T02:20:15.384Z,63.80
2018-10-19T02:20:47.033Z,63.86
2018-10-19T02:21:18.620Z,63.89
2018-10-19T02:21:50.222Z,63.96
2018-10-19T02:22:21.820Z,64.11
2018-10-19T02:22:53.436Z,64.10
2018-10-19T02:23:25.038Z,64.21
2018-10-19T02:23:56.632Z,64.20
2018-10-19T02:24:28.235Z,64.34
2018-10-19T02:24:59.839Z,64.50
2018-10-19T02:25:31.451Z,64.72
2018-10-19T02:26:03.106Z,64.90
2018-10-19T02:26:34.698Z,64.90
2018-10-19T02:27:06.308Z,64.91
2018-10-19T02:27:37.919Z,64.84
2018-10-19T02:28:09.522Z,64.92
2018-10-19T02:28:41.117Z,64.95
2018-10-19T02:29:12.837Z,64.96
2018-10-19T02:29:44.346Z,64.97
2018-10-19T02:30:15.937Z,65.08
2018-10-19T02:30:47.547Z,65.03
2018-10-19T02:31:19.164Z,65.16
2018-10-19T02:31:50.753Z,65.21
2018-10-19T02:32:22.368Z,65.15
2018-10-19T02:32:54.048Z,65.15
2018-10-19T02:33:25.622Z,65.20
2018-10-19T02:33:57.212Z,65.25
2018-10-19T02:34:28.818Z,65.31
2018-10-19T02:35:00.479Z,65.23
2018-10-19T02:35:32.063Z,65.31
2018-10-19T02:36:03.696Z,65.37
2018-10-19T02:36:35.288Z,65.24
2018-10-19T02:37:06.870Z,65.37
2018-10-19T02:37:38.582Z,65.46
2018-10-19T02:38:10.170Z,65.50
2018-10-19T02:38:41.757Z,65.51
2018-10-19T02:39:13.420Z,65.52
2018-10-19T02:39:44.973Z,65.52
2018-10-19T02:40:16.564Z,65.61
2018-10-19T02:40:48.166Z,65.54
2018-10-19T02:41:19.793Z,65.63
2018-10-19T02:41:51.401Z,65.62
2018-10-19T02:42:22.992Z,65.71
2018-10-19T02:42:54.596Z,65.66
2018-10-19T02:43:26.192Z,65.75
2018-10-19T02:43:57.784Z,65.86
2018-10-19T02:44:29.380Z,66.03
2018-10-19T02:45:01.019Z,66.24
2018-10-19T02:45:32.624Z,66.73
2018-10-19T02:46:04.231Z,66.61
2018-10-19T02:46:35.834Z,66.54
2018-10-19T02:47:07.493Z,66.56
2018-10-19T02:47:39.061Z,66.72
2018-10-19T02:48:10.643Z,66.94
2018-10-19T02:48:42.237Z,66.53
2018-10-19T02:49:13.819Z,66.58
2018-10-19T02:49:45.408Z,66.43
2018-10-19T02:50:17.001Z,66.36
2018-10-19T02:50:48.579Z,66.41
2018-10-19T02:51:20.395Z,66.56
2018-10-19T02:51:51.807Z,66.60
2018-10-19T02:52:23.396Z,66.51
2018-10-19T02:52:54.980Z,66.37
2018-10-19T02:53:26.580Z,66.45
2018-10-19T02:53:58.162Z,66.36
2018-10-19T02:54:29.768Z,66.44
2018-10-19T02:55:01.361Z,66.47
2018-10-19T02:55:32.966Z,66.38
2018-10-19T02:56:04.564Z,66.36
2018-10-19T02:56:36.190Z,66.47
2018-10-19T02:57:07.791Z,66.33
2018-10-19T02:57:39.395Z,66.37
2018-10-19T02:58:11.010Z,66.69
2018-10-19T02:58:42.590Z,66.67
2018-10-19T02:59:14.233Z,66.66
2018-10-19T02:59:45.832Z,66.62
2018-10-19T03:00:17.434Z,66.69
2018-10-19T03:00:49.041Z,66.93
2018-10-19T03:01:20.668Z,66.80
2018-10-19T03:01:52.279Z,66.62
2018-10-19T03:02:23.907Z,66.66
2018-10-19T03:02:55.507Z,66.60
2018-10-19T03:03:27.116Z,64.14
2018-10-19T03:03:58.723Z,66.83
2018-10-19T03:04:30.329Z,66.64
2018-10-19T03:05:02.005Z,66.45
2018-10-19T03:05:33.594Z,66.01
2018-10-19T03:06:05.186Z,65.87
2018-10-19T03:06:36.838Z,65.74
2018-10-19T03:07:08.427Z,65.64
2018-10-19T03:07:40.021Z,65.62
2018-10-19T03:08:11.627Z,65.56
2018-10-19T03:08:43.218Z,65.55
2018-10-19T03:09:14.859Z,65.58
2018-10-19T03:09:46.455Z,65.53
2018-10-19T03:10:18.035Z,65.54
2018-10-19T03:10:49.628Z,65.54
2018-10-19T03:11:21.275Z,65.54
2018-10-19T03:11:52.912Z,65.61
2018-10-19T03:12:24.523Z,65.55
2018-10-19T03:12:56.130Z,65.60
2018-10-19T03:13:27.721Z,65.60
2018-10-19T03:13:59.316Z,65.68
2018-10-19T03:14:30.920Z,65.61
2018-10-19T03:15:02.559Z,65.64
2018-10-19T03:15:34.153Z,65.67
2018-10-19T03:16:05.750Z,65.66
2018-10-19T03:16:37.355Z,65.66
2018-10-19T03:17:08.986Z,65.71
2018-10-19T03:17:40.573Z,65.65
2018-10-19T03:18:12.178Z,65.66
2018-10-19T03:18:43.786Z,65.59
2018-10-19T03:19:15.376Z,65.57
2018-10-19T03:19:46.984Z,65.67
2018-10-19T03:20:18.589Z,65.75
2018-10-19T03:20:50.184Z,65.88
2018-10-19T03:21:21.762Z,65.70
2018-10-19T03:21:53.376Z,65.71
2018-10-19T03:22:24.959Z,65.67
2018-10-19T03:22:56.592Z,65.60
2018-10-19T03:23:28.177Z,65.65
2018-10-19T03:23:59.773Z,65.58
2018-10-19T03:24:31.368Z,65.60
2018-10-19T03:25:02.972Z,65.52
2018-10-19T03:25:34.584Z,65.63
2018-10-19T03:26:06.199Z,65.53
2018-10-19T03:26:38.826Z,65.69
2018-10-19T03:27:10.465Z,65.59
2018-10-19T03:27:42.035Z,65.52
2018-10-19T03:28:13.624Z,65.51
2018-10-19T03:28:45.219Z,65.46
2018-10-19T03:29:16.824Z,65.50
2018-10-19T03:29:48.446Z,65.51
2018-10-19T03:30:20.034Z,65.45
2018-10-19T03:30:51.662Z,65.56
2018-10-19T03:31:23.247Z,65.47
2018-10-19T03:31:54.822Z,65.58
2018-10-19T03:32:26.413Z,65.54
2018-10-19T03:32:58.027Z,65.50
2018-10-19T03:33:29.625Z,65.46
2018-10-19T03:34:01.232Z,65.54
2018-10-19T03:34:32.825Z,65.41
2018-10-19T03:35:04.464Z,65.45
2018-10-19T03:35:36.048Z,65.50
2018-10-19T03:36:07.626Z,65.47
2018-10-19T03:36:39.253Z,65.39
2018-10-19T03:37:10.844Z,65.40
2018-10-19T03:37:42.437Z,65.42
2018-10-19T03:38:14.047Z,65.44
2018-10-19T03:38:45.656Z,65.42
2018-10-19T03:39:17.372Z,65.42
2018-10-19T03:39:48.880Z,65.40
2018-10-19T03:40:20.468Z,65.40
2018-10-19T03:40:52.062Z,65.35
2018-10-19T03:41:23.656Z,65.36
2018-10-19T03:41:55.248Z,65.36
2018-10-19T03:42:26.840Z,65.25
2018-10-19T03:42:58.437Z,65.24
2018-10-19T03:43:30.042Z,65.31
2018-10-19T03:44:01.646Z,65.22
2018-10-19T03:44:33.255Z,65.34
2018-10-19T03:45:04.913Z,65.27
2018-10-19T03:45:36.500Z,65.28
2018-10-19T03:46:08.102Z,65.35
2018-10-19T03:46:39.705Z,65.31
2018-10-19T03:47:11.335Z,65.26
2018-10-19T03:47:42.937Z,65.25
2018-10-19T03:48:14.540Z,65.23
2018-10-19T03:48:46.136Z,65.25
2018-10-19T03:49:17.813Z,65.33
2018-10-19T03:49:49.335Z,65.46
2018-10-19T03:50:20.930Z,65.37
2018-10-19T03:50:52.511Z,65.39
2018-10-19T03:51:24.109Z,65.40
2018-10-19T03:51:55.720Z,65.41
2018-10-19T03:52:27.319Z,65.47
2018-10-19T03:52:58.927Z,65.45
2018-10-19T03:53:30.553Z,65.54
2018-10-19T03:54:02.159Z,65.58
2018-10-19T03:54:33.772Z,65.51
2018-10-19T03:55:05.375Z,65.52
2018-10-19T03:55:36.978Z,65.50
2018-10-19T03:56:08.572Z,65.47
2018-10-19T03:56:40.180Z,65.58
2018-10-19T03:57:11.873Z,65.73
2018-10-19T03:57:43.429Z,65.70
2018-10-19T03:58:15.037Z,65.66
2018-10-19T03:58:46.629Z,65.69
2018-10-19T03:59:18.300Z,65.57
2018-10-19T03:59:49.835Z,65.64
2018-10-19T04:00:21.416Z,65.67
2018-10-19T04:00:53.008Z,65.56
2018-10-19T04:01:24.626Z,65.59
2018-10-19T04:01:56.255Z,65.54
2018-10-19T04:02:27.848Z,65.50
2018-10-19T04:02:59.497Z,65.52
2018-10-19T04:03:31.128Z,65.51
2018-10-19T04:04:02.729Z,65.52
2018-10-19T04:04:34.348Z,65.43
2018-10-19T04:05:05.972Z,65.54
2018-10-19T04:05:37.556Z,65.46
2018-10-19T04:06:09.148Z,65.51
2018-10-19T04:06:40.745Z,65.47
2018-10-19T04:07:12.375Z,65.47
2018-10-19T04:07:43.969Z,65.44
2018-10-19T04:08:15.579Z,65.51
2018-10-19T04:08:47.158Z,65.47
2018-10-19T04:09:18.823Z,65.48
2018-10-19T04:09:50.398Z,65.44
2018-10-19T04:10:22.003Z,65.47
2018-10-19T04:10:53.642Z,65.42
2018-10-19T04:11:25.266Z,65.42
2018-10-19T04:11:56.902Z,65.42
2018-10-19T04:12:28.535Z,65.46
2018-10-19T04:13:00.142Z,65.63
2018-10-19T04:13:31.746Z,65.62
2018-10-19T04:14:03.354Z,65.75
2018-10-19T04:14:34.957Z,65.53
2018-10-19T04:15:06.587Z,65.53
2018-10-19T04:15:38.185Z,65.50
2018-10-19T04:16:09.768Z,65.61
2018-10-19T04:16:41.374Z,65.74
2018-10-19T04:17:13.072Z,65.60
2018-10-19T04:17:44.633Z,65.50
2018-10-19T04:18:16.247Z,65.56
2018-10-19T04:18:47.844Z,65.54
2018-10-19T04:19:19.451Z,65.65
2018-10-19T04:19:52.025Z,65.66
2018-10-19T04:20:23.633Z,65.66
2018-10-19T04:20:55.242Z,65.76
2018-10-19T04:21:26.862Z,65.63
2018-10-19T04:21:58.456Z,65.69
2018-10-19T04:22:30.072Z,65.70
2018-10-19T04:23:01.683Z,65.73
2018-10-19T04:23:33.305Z,65.67
2018-10-19T04:24:04.896Z,65.82
2018-10-19T04:24:36.488Z,65.77
2018-10-19T04:25:08.092Z,65.69
2018-10-19T04:25:39.703Z,65.95
2018-10-19T04:26:11.329Z,65.82
2018-10-19T04:26:42.921Z,65.86
2018-10-19T04:27:14.647Z,65.86
2018-10-19T04:27:46.223Z,65.84
2018-10-19T04:28:17.816Z,65.87
2018-10-19T04:28:49.404Z,65.71
2018-10-19T04:29:21.016Z,65.71
2018-10-19T04:29:52.611Z,65.63
2018-10-19T04:30:24.204Z,65.83
2018-10-19T04:30:55.800Z,65.90
2018-10-19T04:31:27.382Z,65.90
2018-10-19T04:31:58.972Z,65.81
2018-10-19T04:32:30.582Z,65.65
2018-10-19T04:33:02.239Z,65.79
2018-10-19T04:33:33.802Z,65.74
2018-10-19T04:34:05.393Z,65.67
2018-10-19T04:34:36.988Z,65.67
2018-10-19T04:35:08.583Z,65.69
2018-10-19T04:35:40.203Z,65.76
2018-10-19T04:36:11.827Z,65.62
2018-10-19T04:36:43.418Z,65.63
2018-10-19T04:37:15.033Z,65.63
2018-10-19T04:37:46.634Z,65.62
2018-10-19T04:38:18.225Z,65.63
2018-10-19T04:38:49.815Z,65.61
2018-10-19T04:39:21.416Z,65.65
2018-10-19T04:39:53.022Z,65.56
2018-10-19T04:40:24.602Z,65.56
2018-10-19T04:40:56.245Z,65.63
2018-10-19T04:41:27.863Z,65.62
2018-10-19T04:41:59.505Z,65.62
2018-10-19T04:42:31.119Z,65.63
2018-10-19T04:43:02.758Z,65.65
2018-10-19T04:43:34.336Z,65.66
2018-10-19T04:44:05.919Z,65.67
2018-10-19T04:44:37.498Z,65.67
2018-10-19T04:45:09.128Z,65.58
2018-10-19T04:45:40.724Z,65.58
2018-10-19T04:46:12.320Z,65.60
2018-10-19T04:46:43.974Z,65.63
2018-10-19T04:47:15.623Z,65.56
2018-10-19T04:47:47.284Z,65.67
2018-10-19T04:48:18.821Z,65.59
2018-10-19T04:48:50.414Z,65.52
2018-10-19T04:49:22.014Z,65.57
2018-10-19T04:49:53.605Z,65.56
2018-10-19T04:50:25.209Z,65.57
2018-10-19T04:50:56.880Z,65.54
2018-10-19T04:51:28.441Z,65.56
2018-10-19T04:52:00.043Z,65.60
2018-10-19T04:52:31.664Z,65.52
2018-10-19T04:53:03.296Z,66.15
2018-10-19T04:53:34.951Z,66.15
2018-10-19T04:54:06.510Z,65.71
2018-10-19T04:54:38.119Z,65.66
2018-10-19T04:55:09.724Z,65.65
2018-10-19T04:55:41.302Z,65.68
2018-10-19T04:56:12.896Z,65.68
2018-10-19T04:56:44.496Z,65.60
2018-10-19T04:57:16.080Z,65.69
2018-10-19T04:57:47.711Z,65.74
2018-10-19T04:58:19.315Z,65.66
2018-10-19T04:58:50.911Z,65.75
2018-10-19T04:59:22.509Z,65.54
2018-10-19T04:59:54.114Z,65.85
2018-10-19T05:00:25.709Z,65.91
2018-10-19T05:00:57.315Z,65.93
2018-10-19T05:01:28.919Z,65.91
2018-10-19T05:02:00.513Z,65.88
2018-10-19T05:02:32.229Z,65.89
2018-10-19T05:03:03.848Z,65.76
2018-10-19T05:03:35.444Z,65.92
2018-10-19T05:04:07.024Z,65.82
2018-10-19T05:04:38.647Z,66.01
2018-10-19T05:05:10.367Z,65.94
2018-10-19T05:05:41.913Z,65.93
2018-10-19T05:06:13.663Z,65.90
2018-10-19T05:06:45.276Z,65.91
2018-10-19T05:07:16.790Z,65.90
2018-10-19T05:07:48.413Z,65.89
2018-10-19T05:08:20.083Z,65.92
2018-10-19T05:08:51.639Z,65.89
2018-10-19T05:09:23.228Z,65.78
2018-10-19T05:09:54.829Z,65.85
2018-10-19T05:10:26.428Z,65.80
2018-10-19T05:10:58.078Z,65.85
2018-10-19T05:11:29.633Z,66.00
2018-10-19T05:12:01.228Z,65.92
2018-10-19T05:12:32.869Z,66.11
2018-10-19T05:13:04.509Z,65.91
2018-10-19T05:13:36.122Z,65.90
2018-10-19T05:14:07.785Z,65.93
2018-10-19T05:14:39.332Z,65.88
2018-10-19T05:15:10.940Z,65.87
2018-10-19T05:15:42.547Z,65.86
2018-10-19T05:16:14.155Z,65.84
2018-10-19T05:16:45.752Z,65.83
2018-10-19T05:17:17.351Z,65.94
2018-10-19T05:17:48.988Z,65.90
2018-10-19T05:18:20.606Z,66.29
2018-10-19T05:18:52.209Z,66.25
2018-10-19T05:19:23.811Z,66.21
2018-10-19T05:19:55.451Z,66.08
2018-10-19T05:20:27.058Z,66.00
2018-10-19T05:20:58.635Z,65.96
2018-10-19T05:21:30.262Z,65.92
2018-10-19T05:22:01.859Z,66.00
2018-10-19T05:22:33.463Z,66.00
2018-10-19T05:23:05.146Z,66.18
2018-10-19T05:23:36.695Z,66.08
2018-10-19T05:24:08.288Z,66.09
2018-10-19T05:24:39.903Z,66.10
2018-10-19T05:25:11.507Z,66.04
2018-10-19T05:25:43.100Z,65.99
2018-10-19T05:26:14.832Z,65.90
2018-10-19T05:26:46.346Z,65.95
2018-10-19T05:27:17.951Z,65.83
2018-10-19T05:27:49.588Z,65.80
2018-10-19T05:28:21.192Z,65.83
2018-10-19T05:28:52.835Z,65.86
2018-10-19T05:29:24.413Z,65.87
2018-10-19T05:29:56.009Z,65.83
2018-10-19T05:30:27.610Z,65.83
2018-10-19T05:30:59.224Z,65.79
2018-10-19T05:31:30.807Z,65.88
2018-10-19T05:32:02.433Z,65.80
2018-10-19T05:32:34.026Z,65.81
2018-10-19T05:33:05.660Z,65.79
2018-10-19T05:33:37.268Z,65.79
2018-10-19T05:34:08.855Z,65.72
2018-10-19T05:34:40.473Z,65.68
2018-10-19T05:35:12.177Z,65.75
2018-10-19T05:35:43.701Z,65.73
2018-10-19T05:36:15.288Z,65.81
2018-10-19T05:36:46.880Z,65.82
2018-10-19T05:37:19.513Z,65.66
2018-10-19T05:37:51.119Z,65.71
2018-10-19T05:38:22.712Z,65.72
2018-10-19T05:38:54.319Z,65.65
2018-10-19T05:39:25.908Z,65.74
2018-10-19T05:39:57.517Z,65.72
2018-10-19T05:40:29.118Z,65.74
2018-10-19T05:41:00.723Z,65.78
2018-10-19T05:41:32.314Z,65.74
2018-10-19T05:42:03.890Z,65.74
2018-10-19T05:42:35.518Z,65.72
2018-10-19T05:43:07.122Z,65.66
2018-10-19T05:43:38.787Z,65.76
2018-10-19T05:44:10.380Z,66.21
2018-10-19T05:44:41.978Z,66.09
2018-10-19T05:45:13.575Z,66.02
2018-10-19T05:45:45.178Z,66.10
2018-10-19T05:46:16.769Z,66.12
2018-10-19T05:46:48.378Z,66.11
2018-10-19T05:47:19.972Z,66.05
2018-10-19T05:47:51.551Z,66.03
2018-10-19T05:48:23.144Z,65.98
2018-10-19T05:48:54.722Z,65.95
2018-10-19T05:49:26.319Z,66.10
2018-10-19T05:49:57.921Z,66.14
2018-10-19T05:50:29.534Z,66.00
2018-10-19T05:51:01.133Z,66.07
2018-10-19T05:51:32.751Z,66.13
2018-10-19T05:52:04.398Z,66.15
2018-10-19T05:52:35.984Z,66.05
2018-10-19T05:53:07.652Z,66.09
2018-10-19T05:53:39.224Z,66.15
2018-10-19T05:54:10.822Z,66.28
2018-10-19T05:54:42.412Z,66.24
2018-10-19T05:55:14.009Z,66.04
2018-10-19T05:55:45.601Z,66.11
2018-10-19T05:56:17.297Z,66.17
2018-10-19T05:56:48.824Z,66.06
2018-10-19T05:57:20.425Z,65.98
2018-10-19T05:57:52.039Z,65.97
2018-10-19T05:58:23.643Z,66.03
2018-10-19T05:58:55.250Z,65.94
2018-10-19T05:59:26.864Z,65.93
2018-10-19T05:59:58.472Z,65.96
2018-10-19T06:00:30.079Z,65.94
2018-10-19T06:01:01.673Z,65.86
2018-10-19T06:01:33.260Z,65.95
2018-10-19T06:02:04.941Z,65.89
2018-10-19T06:02:36.587Z,65.84
2018-10-19T06:03:08.126Z,65.89
2018-10-19T06:03:39.754Z,65.87
2018-10-19T06:04:11.380Z,65.79
2018-10-19T06:04:42.986Z,65.83
2018-10-19T06:05:14.662Z,65.89
2018-10-19T06:05:46.220Z,65.84
2018-10-19T06:06:17.812Z,65.83
2018-10-19T06:06:49.417Z,65.77
2018-10-19T06:07:21.022Z,65.74
2018-10-19T06:07:52.615Z,65.90
2018-10-19T06:08:24.240Z,65.81
2018-10-19T06:08:55.819Z,65.85
2018-10-19T06:09:27.423Z,65.83
2018-10-19T06:09:59.017Z,65.79
2018-10-19T06:10:30.623Z,65.81
2018-10-19T06:11:02.340Z,65.75
2018-10-19T06:11:33.944Z,65.91
2018-10-19T06:12:05.548Z,65.93
2018-10-19T06:12:37.140Z,65.90
2018-10-19T06:13:08.736Z,65.83
2018-10-19T06:13:40.404Z,65.84
2018-10-19T06:14:12.050Z,65.84
2018-10-19T06:14:43.642Z,65.87
2018-10-19T06:15:15.250Z,65.87
2018-10-19T06:15:46.844Z,65.91
2018-10-19T06:16:18.448Z,65.92
2018-10-19T06:16:50.056Z,65.94
2018-10-19T06:17:21.665Z,65.88
2018-10-19T06:17:53.266Z,65.83
2018-10-19T06:18:24.902Z,65.84
2018-10-19T06:18:56.514Z,65.85
2018-10-19T06:19:28.104Z,65.74
2018-10-19T06:19:59.690Z,65.77
2018-10-19T06:20:31.284Z,65.78
2018-10-19T06:21:02.934Z,65.80
2018-10-19T06:21:34.496Z,65.87
2018-10-19T06:22:06.098Z,65.81
2018-10-19T06:22:37.711Z,65.76
2018-10-19T06:23:09.384Z,65.89
2018-10-19T06:23:40.964Z,65.78
2018-10-19T06:24:12.570Z,65.76
2018-10-19T06:24:44.165Z,65.82
2018-10-19T06:25:15.746Z,65.74
2018-10-19T06:25:47.410Z,65.81
2018-10-19T06:26:19.011Z,65.76
2018-10-19T06:26:50.604Z,65.79
2018-10-19T06:27:22.200Z,65.90
2018-10-19T06:27:53.801Z,65.86
2018-10-19T06:28:25.432Z,65.73
2018-10-19T06:28:57.094Z,65.79
2018-10-19T06:29:28.689Z,65.83
2018-10-19T06:30:00.267Z,65.87
2018-10-19T06:30:31.871Z,65.83
2018-10-19T06:31:03.481Z,65.81
2018-10-19T06:31:35.087Z,65.62
2018-10-19T06:32:06.740Z,65.73
2018-10-19T06:32:38.310Z,65.76
2018-10-19T06:33:09.894Z,65.62
2018-10-19T06:33:41.565Z,65.73
2018-10-19T06:34:13.114Z,65.85
2018-10-19T06:34:44.719Z,66.22
2018-10-19T06:35:16.348Z,66.03
2018-10-19T06:35:47.929Z,66.18
2018-10-19T06:36:19.534Z,66.15
2018-10-19T06:36:51.127Z,66.07
2018-10-19T06:37:22.720Z,66.02
2018-10-19T06:37:54.301Z,66.00
2018-10-19T06:38:25.920Z,66.05
2018-10-19T06:38:57.536Z,66.05
2018-10-19T06:39:29.130Z,66.02
2018-10-19T06:40:00.730Z,65.79
2018-10-19T06:40:32.371Z,65.94
2018-10-19T06:41:04.031Z,65.74
2018-10-19T06:41:35.597Z,65.73
2018-10-19T06:42:07.202Z,65.63
2018-10-19T06:42:38.783Z,65.51
2018-10-19T06:43:10.372Z,65.56
2018-10-19T06:43:41.978Z,65.65
2018-10-19T06:44:13.655Z,65.76
2018-10-19T06:44:45.240Z,65.78
2018-10-19T06:45:16.832Z,65.73
2018-10-19T06:45:48.443Z,65.75
2018-10-19T06:46:20.054Z,65.73
2018-10-19T06:46:51.844Z,65.74
2018-10-19T06:47:23.376Z,65.89